sensor_id;sensor_type;location;lat;lon;timestamp;temperature;humidity
47857;DHT22;33618;49.972;8.242;2023-05-09T00:00:47;16.30;99.90
47857;DHT22;33618;49.972;8.242;2023-05-09T00:03:14;16.30;99.90
47857;DHT22;33618;49.972;8.242;2023-05-09T00:05:41;16.40;99.90
47857;DHT22;33618;49.972;8.242;2023-05-09T00:08:08;16.40;99.90
47857;DHT22;33618;49.972;8.242;2023-05-09T00:10:35;16.40;99.90
47857;DHT22;33618;49.972;8.242;2023-05-09T00:13:02;16.30;99.90
47857;DHT22;33618;49.972;8.242;2023-05-09T00:15:29;16.30;99.90
47857;DHT22;33618;49.972;8.242;2023-05-09T00:17:57;16.20;99.90
47857;DHT22;33618;49.972;8.242;2023-05-09T00:20:25;16.10;99.90
47857;DHT22;33618;49.972;8.242;2023-05-09T00:22:51;16.10;99.90
47857;DHT22;33618;49.972;8.242;2023-05-09T00:25:18;16.10;99.90
47857;DHT22;33618;49.972;8.242;2023-05-09T00:27:45;16.10;99.90
47857;DHT22;33618;49.972;8.242;2023-05-09T00:30:12;16.10;99.90
47857;DHT22;33618;49.972;8.242;2023-05-09T00:32:39;16.10;99.90
47857;DHT22;33618;49.972;8.242;2023-05-09T00:35:07;16.10;99.90
47857;DHT22;33618;49.972;8.242;2023-05-09T00:37:34;16.10;99.90
47857;DHT22;33618;49.972;8.242;2023-05-09T00:40:02;16.00;99.90
47857;DHT22;33618;49.972;8.242;2023-05-09T00:42:29;16.00;99.90
47857;DHT22;33618;49.972;8.242;2023-05-09T00:44:56;15.90;99.90
47857;DHT22;33618;49.972;8.242;2023-05-09T00:47:23;15.80;99.90
47857;DHT22;33618;49.972;8.242;2023-05-09T00:49:50;15.80;99.90
47857;DHT22;33618;49.972;8.242;2023-05-09T00:52:17;15.80;99.90
47857;DHT22;33618;49.972;8.242;2023-05-09T00:54:50;15.80;99.90
47857;DHT22;33618;49.972;8.242;2023-05-09T00:57:17;15.80;99.90
47857;DHT22;33618;49.972;8.242;2023-05-09T00:59:44;15.80;99.90
47857;DHT22;33618;49.972;8.242;2023-05-09T01:02:11;15.80;99.90
47857;DHT22;33618;49.972;8.242;2023-05-09T01:04:38;15.80;99.90
47857;DHT22;33618;49.972;8.242;2023-05-09T01:09:59;15.90;99.90
47857;DHT22;33618;49.972;8.242;2023-05-09T01:12:40;15.90;99.90
47857;DHT22;33618;49.972;8.242;2023-05-09T01:18:16;15.50;99.90
47857;DHT22;33618;49.972;8.242;2023-05-09T01:20:52;15.30;99.90
47857;DHT22;33618;49.972;8.242;2023-05-09T01:23:39;15.20;99.90
47857;DHT22;33618;49.972;8.242;2023-05-09T01:32:17;15.10;99.90
47857;DHT22;33618;49.972;8.242;2023-05-09T01:34:46;15.00;99.90
47857;DHT22;33618;49.972;8.242;2023-05-09T01:37:16;15.00;99.90
47857;DHT22;33618;49.972;8.242;2023-05-09T01:39:46;14.90;99.90
47857;DHT22;33618;49.972;8.242;2023-05-09T01:42:17;14.90;99.90
47857;DHT22;33618;49.972;8.242;2023-05-09T01:44:46;14.90;99.90
47857;DHT22;33618;49.972;8.242;2023-05-09T01:47:14;14.80;99.90
47857;DHT22;33618;49.972;8.242;2023-05-09T01:49:43;14.80;99.90
47857;DHT22;33618;49.972;8.242;2023-05-09T01:52:14;14.90;99.90
47857;DHT22;33618;49.972;8.242;2023-05-09T01:54:43;14.90;99.90
47857;DHT22;33618;49.972;8.242;2023-05-09T01:57:11;14.90;99.90
47857;DHT22;33618;49.972;8.242;2023-05-09T01:59:43;14.90;99.90
47857;DHT22;33618;49.972;8.242;2023-05-09T02:02:11;14.90;99.90
47857;DHT22;33618;49.972;8.242;2023-05-09T02:04:39;14.80;99.90
47857;DHT22;33618;49.972;8.242;2023-05-09T02:07:07;14.80;99.90
47857;DHT22;33618;49.972;8.242;2023-05-09T02:09:34;14.70;99.90
47857;DHT22;33618;49.972;8.242;2023-05-09T02:12:01;14.70;99.90
47857;DHT22;33618;49.972;8.242;2023-05-09T02:14:30;14.70;99.90
47857;DHT22;33618;49.972;8.242;2023-05-09T02:16:59;14.70;99.90
47857;DHT22;33618;49.972;8.242;2023-05-09T02:19:26;14.70;99.90
47857;DHT22;33618;49.972;8.242;2023-05-09T02:21:54;14.80;99.90
47857;DHT22;33618;49.972;8.242;2023-05-09T02:24:21;14.90;99.90
47857;DHT22;33618;49.972;8.242;2023-05-09T02:26:47;14.80;99.90
47857;DHT22;33618;49.972;8.242;2023-05-09T02:29:16;14.80;99.90
47857;DHT22;33618;49.972;8.242;2023-05-09T02:31:46;14.80;99.90
47857;DHT22;33618;49.972;8.242;2023-05-09T02:34:14;14.80;99.90
47857;DHT22;33618;49.972;8.242;2023-05-09T02:36:42;14.90;99.90
47857;DHT22;33618;49.972;8.242;2023-05-09T02:39:09;14.90;99.90
47857;DHT22;33618;49.972;8.242;2023-05-09T02:41:36;14.90;99.90
47857;DHT22;33618;49.972;8.242;2023-05-09T02:44:03;14.90;99.90
47857;DHT22;33618;49.972;8.242;2023-05-09T02:46:31;14.90;99.90
47857;DHT22;33618;49.972;8.242;2023-05-09T02:48:58;14.90;99.90
47857;DHT22;33618;49.972;8.242;2023-05-09T02:51:25;14.90;99.90
47857;DHT22;33618;49.972;8.242;2023-05-09T02:53:52;14.90;99.90
47857;DHT22;33618;49.972;8.242;2023-05-09T02:56:19;14.90;99.90
47857;DHT22;33618;49.972;8.242;2023-05-09T02:58:46;15.00;99.90
47857;DHT22;33618;49.972;8.242;2023-05-09T03:01:17;15.00;99.90
47857;DHT22;33618;49.972;8.242;2023-05-09T03:03:44;15.00;99.90
47857;DHT22;33618;49.972;8.242;2023-05-09T03:06:11;15.00;99.90
47857;DHT22;33618;49.972;8.242;2023-05-09T03:08:39;15.00;99.90
47857;DHT22;33618;49.972;8.242;2023-05-09T03:11:06;14.90;99.90
47857;DHT22;33618;49.972;8.242;2023-05-09T03:13:33;14.90;99.90
47857;DHT22;33618;49.972;8.242;2023-05-09T03:16:00;14.80;99.90
47857;DHT22;33618;49.972;8.242;2023-05-09T03:18:26;14.70;99.90
47857;DHT22;33618;49.972;8.242;2023-05-09T03:20:53;14.70;99.90
47857;DHT22;33618;49.972;8.242;2023-05-09T03:23:20;14.60;99.90
47857;DHT22;33618;49.972;8.242;2023-05-09T03:25:47;14.50;99.90
47857;DHT22;33618;49.972;8.242;2023-05-09T03:28:14;14.50;99.90
47857;DHT22;33618;49.972;8.242;2023-05-09T03:30:40;14.50;99.90
47857;DHT22;33618;49.972;8.242;2023-05-09T03:33:07;14.50;99.90
47857;DHT22;33618;49.972;8.242;2023-05-09T03:35:34;14.70;99.90
47857;DHT22;33618;49.972;8.242;2023-05-09T03:38:01;14.70;99.90
47857;DHT22;33618;49.972;8.242;2023-05-09T03:40:28;14.70;99.90
47857;DHT22;33618;49.972;8.242;2023-05-09T03:42:55;14.80;99.90
47857;DHT22;33618;49.972;8.242;2023-05-09T03:45:22;14.90;99.90
47857;DHT22;33618;49.972;8.242;2023-05-09T03:47:49;15.00;99.90
47857;DHT22;33618;49.972;8.242;2023-05-09T03:50:16;15.00;99.90
47857;DHT22;33618;49.972;8.242;2023-05-09T03:52:43;14.90;99.90
47857;DHT22;33618;49.972;8.242;2023-05-09T03:55:09;14.90;99.90
47857;DHT22;33618;49.972;8.242;2023-05-09T03:57:36;14.80;99.90
47857;DHT22;33618;49.972;8.242;2023-05-09T04:00:04;14.90;99.90
47857;DHT22;33618;49.972;8.242;2023-05-09T04:02:32;15.00;99.90
47857;DHT22;33618;49.972;8.242;2023-05-09T04:05:00;15.10;99.90
47857;DHT22;33618;49.972;8.242;2023-05-09T04:07:27;15.20;99.90
47857;DHT22;33618;49.972;8.242;2023-05-09T04:09:54;15.20;99.90
47857;DHT22;33618;49.972;8.242;2023-05-09T04:12:21;15.20;99.90
47857;DHT22;33618;49.972;8.242;2023-05-09T04:14:48;15.20;99.90
47857;DHT22;33618;49.972;8.242;2023-05-09T04:17:15;15.30;99.90
47857;DHT22;33618;49.972;8.242;2023-05-09T04:19:41;15.40;99.90
47857;DHT22;33618;49.972;8.242;2023-05-09T04:22:08;15.40;99.90
47857;DHT22;33618;49.972;8.242;2023-05-09T04:24:35;15.50;99.90
47857;DHT22;33618;49.972;8.242;2023-05-09T04:27:02;15.40;99.90
47857;DHT22;33618;49.972;8.242;2023-05-09T04:29:29;15.40;99.90
47857;DHT22;33618;49.972;8.242;2023-05-09T04:31:56;15.30;99.90
47857;DHT22;33618;49.972;8.242;2023-05-09T04:34:24;15.40;99.90
47857;DHT22;33618;49.972;8.242;2023-05-09T04:36:52;15.40;99.90
47857;DHT22;33618;49.972;8.242;2023-05-09T04:39:19;15.60;99.90
47857;DHT22;33618;49.972;8.242;2023-05-09T04:41:46;15.60;99.90
47857;DHT22;33618;49.972;8.242;2023-05-09T04:44:13;15.70;99.90
47857;DHT22;33618;49.972;8.242;2023-05-09T04:46:40;15.70;99.90
47857;DHT22;33618;49.972;8.242;2023-05-09T04:49:07;15.90;99.90
47857;DHT22;33618;49.972;8.242;2023-05-09T04:51:34;15.90;99.90
47857;DHT22;33618;49.972;8.242;2023-05-09T04:54:01;16.00;99.90
47857;DHT22;33618;49.972;8.242;2023-05-09T04:56:28;16.00;99.90
47857;DHT22;33618;49.972;8.242;2023-05-09T04:58:54;16.10;99.90
47857;DHT22;33618;49.972;8.242;2023-05-09T05:01:21;16.20;99.90
47857;DHT22;33618;49.972;8.242;2023-05-09T05:03:48;16.30;99.90
47857;DHT22;33618;49.972;8.242;2023-05-09T05:06:15;16.30;99.90
47857;DHT22;33618;49.972;8.242;2023-05-09T05:08:42;16.30;99.90
47857;DHT22;33618;49.972;8.242;2023-05-09T05:11:09;16.40;99.90
47857;DHT22;33618;49.972;8.242;2023-05-09T05:13:36;16.50;99.90
47857;DHT22;33618;49.972;8.242;2023-05-09T05:16:03;16.50;99.90
47857;DHT22;33618;49.972;8.242;2023-05-09T05:18:30;16.50;99.90
47857;DHT22;33618;49.972;8.242;2023-05-09T05:20:56;16.60;99.90
47857;DHT22;33618;49.972;8.242;2023-05-09T05:23:23;16.60;99.90
47857;DHT22;33618;49.972;8.242;2023-05-09T05:25:50;16.70;99.90
47857;DHT22;33618;49.972;8.242;2023-05-09T05:28:17;16.70;99.90
47857;DHT22;33618;49.972;8.242;2023-05-09T05:30:44;16.80;99.90
47857;DHT22;33618;49.972;8.242;2023-05-09T05:33:11;16.90;99.90
47857;DHT22;33618;49.972;8.242;2023-05-09T05:35:37;17.00;99.90
47857;DHT22;33618;49.972;8.242;2023-05-09T05:38:04;17.00;99.90
47857;DHT22;33618;49.972;8.242;2023-05-09T05:40:31;17.10;99.90
47857;DHT22;33618;49.972;8.242;2023-05-09T05:42:58;17.20;99.90
47857;DHT22;33618;49.972;8.242;2023-05-09T05:45:25;17.30;99.90
47857;DHT22;33618;49.972;8.242;2023-05-09T05:47:52;17.30;99.90
47857;DHT22;33618;49.972;8.242;2023-05-09T05:50:20;17.40;99.90
47857;DHT22;33618;49.972;8.242;2023-05-09T05:52:47;17.50;99.90
47857;DHT22;33618;49.972;8.242;2023-05-09T05:55:13;17.50;99.90
47857;DHT22;33618;49.972;8.242;2023-05-09T05:57:41;17.50;99.90
47857;DHT22;33618;49.972;8.242;2023-05-09T06:00:08;17.60;99.90
47857;DHT22;33618;49.972;8.242;2023-05-09T06:02:36;17.60;99.90
47857;DHT22;33618;49.972;8.242;2023-05-09T06:05:04;17.60;99.90
47857;DHT22;33618;49.972;8.242;2023-05-09T06:07:32;17.70;99.90
47857;DHT22;33618;49.972;8.242;2023-05-09T06:09:59;17.80;99.90
47857;DHT22;33618;49.972;8.242;2023-05-09T06:12:26;17.80;99.90
47857;DHT22;33618;49.972;8.242;2023-05-09T06:14:55;17.80;99.90
47857;DHT22;33618;49.972;8.242;2023-05-09T06:17:22;17.80;99.90
47857;DHT22;33618;49.972;8.242;2023-05-09T06:19:48;17.70;99.90
47857;DHT22;33618;49.972;8.242;2023-05-09T06:22:15;17.70;99.90
47857;DHT22;33618;49.972;8.242;2023-05-09T06:24:42;17.70;99.90
47857;DHT22;33618;49.972;8.242;2023-05-09T06:27:09;17.70;99.90
47857;DHT22;33618;49.972;8.242;2023-05-09T06:29:36;17.70;99.90
47857;DHT22;33618;49.972;8.242;2023-05-09T06:32:03;17.70;99.90
47857;DHT22;33618;49.972;8.242;2023-05-09T06:34:30;17.60;99.90
47857;DHT22;33618;49.972;8.242;2023-05-09T06:36:57;17.60;99.90
47857;DHT22;33618;49.972;8.242;2023-05-09T06:39:23;17.50;99.90
47857;DHT22;33618;49.972;8.242;2023-05-09T06:41:50;17.50;99.90
47857;DHT22;33618;49.972;8.242;2023-05-09T06:44:17;17.40;99.90
47857;DHT22;33618;49.972;8.242;2023-05-09T06:46:43;17.20;99.90
47857;DHT22;33618;49.972;8.242;2023-05-09T06:49:10;17.10;99.90
47857;DHT22;33618;49.972;8.242;2023-05-09T06:51:39;17.20;99.90
47857;DHT22;33618;49.972;8.242;2023-05-09T06:54:06;17.20;99.90
47857;DHT22;33618;49.972;8.242;2023-05-09T06:56:33;17.20;99.90
47857;DHT22;33618;49.972;8.242;2023-05-09T06:58:59;17.40;99.90
47857;DHT22;33618;49.972;8.242;2023-05-09T07:01:26;17.50;99.90
47857;DHT22;33618;49.972;8.242;2023-05-09T07:03:53;17.60;99.90
47857;DHT22;33618;49.972;8.242;2023-05-09T07:06:20;17.70;99.90
47857;DHT22;33618;49.972;8.242;2023-05-09T07:08:46;17.80;99.90
47857;DHT22;33618;49.972;8.242;2023-05-09T07:11:13;17.80;99.90
47857;DHT22;33618;49.972;8.242;2023-05-09T07:13:40;17.70;99.90
47857;DHT22;33618;49.972;8.242;2023-05-09T07:16:07;17.70;99.90
47857;DHT22;33618;49.972;8.242;2023-05-09T07:18:34;17.70;99.90
47857;DHT22;33618;49.972;8.242;2023-05-09T07:21:01;17.70;99.90
47857;DHT22;33618;49.972;8.242;2023-05-09T07:23:28;17.80;99.90
47857;DHT22;33618;49.972;8.242;2023-05-09T07:25:56;17.90;99.90
47857;DHT22;33618;49.972;8.242;2023-05-09T07:28:24;17.90;99.90
47857;DHT22;33618;49.972;8.242;2023-05-09T07:30:53;17.80;99.90
47857;DHT22;33618;49.972;8.242;2023-05-09T07:33:20;17.80;99.90
47857;DHT22;33618;49.972;8.242;2023-05-09T07:35:47;17.70;99.90
47857;DHT22;33618;49.972;8.242;2023-05-09T07:38:14;17.60;99.90
47857;DHT22;33618;49.972;8.242;2023-05-09T07:40:41;17.70;99.90
47857;DHT22;33618;49.972;8.242;2023-05-09T07:43:08;17.70;99.90
47857;DHT22;33618;49.972;8.242;2023-05-09T07:45:35;17.80;99.90
47857;DHT22;33618;49.972;8.242;2023-05-09T07:48:02;18.00;99.90
47857;DHT22;33618;49.972;8.242;2023-05-09T07:50:29;18.10;99.90
47857;DHT22;33618;49.972;8.242;2023-05-09T07:52:55;18.20;99.90
47857;DHT22;33618;49.972;8.242;2023-05-09T07:55:22;18.30;99.90
47857;DHT22;33618;49.972;8.242;2023-05-09T07:57:49;18.40;99.90
47857;DHT22;33618;49.972;8.242;2023-05-09T08:00:16;18.50;99.90
47857;DHT22;33618;49.972;8.242;2023-05-09T08:02:45;18.50;99.90
47857;DHT22;33618;49.972;8.242;2023-05-09T08:05:12;18.60;99.90
47857;DHT22;33618;49.972;8.242;2023-05-09T08:07:39;18.70;99.90
47857;DHT22;33618;49.972;8.242;2023-05-09T08:10:07;18.90;99.90
47857;DHT22;33618;49.972;8.242;2023-05-09T08:12:34;19.00;99.90
47857;DHT22;33618;49.972;8.242;2023-05-09T08:15:01;19.00;99.90
47857;DHT22;33618;49.972;8.242;2023-05-09T08:17:28;19.00;99.90
47857;DHT22;33618;49.972;8.242;2023-05-09T08:19:55;18.90;99.90
47857;DHT22;33618;49.972;8.242;2023-05-09T08:22:22;18.90;99.90
47857;DHT22;33618;49.972;8.242;2023-05-09T08:24:50;18.70;99.90
47857;DHT22;33618;49.972;8.242;2023-05-09T08:27:17;18.70;99.90
47857;DHT22;33618;49.972;8.242;2023-05-09T08:29:43;18.50;99.90
47857;DHT22;33618;49.972;8.242;2023-05-09T08:32:11;18.40;99.90
47857;DHT22;33618;49.972;8.242;2023-05-09T08:34:38;18.20;99.90
47857;DHT22;33618;49.972;8.242;2023-05-09T08:37:04;18.20;99.90
47857;DHT22;33618;49.972;8.242;2023-05-09T08:39:31;18.10;99.90
47857;DHT22;33618;49.972;8.242;2023-05-09T08:42:01;18.00;99.90
47857;DHT22;33618;49.972;8.242;2023-05-09T08:44:29;18.00;99.90
47857;DHT22;33618;49.972;8.242;2023-05-09T08:47:02;18.10;99.90
47857;DHT22;33618;49.972;8.242;2023-05-09T08:49:29;18.10;99.90
47857;DHT22;33618;49.972;8.242;2023-05-09T08:51:56;18.00;99.90
47857;DHT22;33618;49.972;8.242;2023-05-09T08:54:23;18.00;99.90
47857;DHT22;33618;49.972;8.242;2023-05-09T08:56:50;18.10;99.90
47857;DHT22;33618;49.972;8.242;2023-05-09T08:59:18;18.20;99.90
47857;DHT22;33618;49.972;8.242;2023-05-09T09:01:45;18.30;99.90
47857;DHT22;33618;49.972;8.242;2023-05-09T09:04:12;18.40;99.90
47857;DHT22;33618;49.972;8.242;2023-05-09T09:06:39;18.30;99.90
47857;DHT22;33618;49.972;8.242;2023-05-09T09:09:07;18.40;99.90
47857;DHT22;33618;49.972;8.242;2023-05-09T09:11:36;18.40;99.90
47857;DHT22;33618;49.972;8.242;2023-05-09T09:14:10;18.40;99.90
47857;DHT22;33618;49.972;8.242;2023-05-09T09:16:40;18.40;99.90
47857;DHT22;33618;49.972;8.242;2023-05-09T09:19:11;18.30;99.90
47857;DHT22;33618;49.972;8.242;2023-05-09T09:21:44;18.20;99.90
47857;DHT22;33618;49.972;8.242;2023-05-09T09:24:13;18.10;99.90
47857;DHT22;33618;49.972;8.242;2023-05-09T09:26:46;18.00;99.90
47857;DHT22;33618;49.972;8.242;2023-05-09T09:29:14;18.10;99.90
47857;DHT22;33618;49.972;8.242;2023-05-09T09:31:45;18.10;99.90
47857;DHT22;33618;49.972;8.242;2023-05-09T09:34:19;18.10;99.90
47857;DHT22;33618;49.972;8.242;2023-05-09T09:36:46;18.00;99.90
47857;DHT22;33618;49.972;8.242;2023-05-09T09:39:14;17.90;99.90
47857;DHT22;33618;49.972;8.242;2023-05-09T09:41:41;17.90;99.90
47857;DHT22;33618;49.972;8.242;2023-05-09T09:44:12;18.00;99.90
47857;DHT22;33618;49.972;8.242;2023-05-09T09:46:49;18.00;99.90
47857;DHT22;33618;49.972;8.242;2023-05-09T09:49:19;18.10;99.90
47857;DHT22;33618;49.972;8.242;2023-05-09T09:51:53;18.30;99.90
47857;DHT22;33618;49.972;8.242;2023-05-09T09:54:22;18.50;99.90
47857;DHT22;33618;49.972;8.242;2023-05-09T09:56:52;18.80;99.90
47857;DHT22;33618;49.972;8.242;2023-05-09T09:59:21;19.00;99.90
47857;DHT22;33618;49.972;8.242;2023-05-09T10:02:01;19.30;99.90
47857;DHT22;33618;49.972;8.242;2023-05-09T10:04:37;19.40;99.90
47857;DHT22;33618;49.972;8.242;2023-05-09T10:07:08;19.70;99.90
47857;DHT22;33618;49.972;8.242;2023-05-09T10:09:40;19.80;99.90
47857;DHT22;33618;49.972;8.242;2023-05-09T10:12:09;19.80;99.90
47857;DHT22;33618;49.972;8.242;2023-05-09T10:14:40;19.90;99.90
47857;DHT22;33618;49.972;8.242;2023-05-09T10:17:08;19.90;99.90
47857;DHT22;33618;49.972;8.242;2023-05-09T10:19:37;19.80;99.90
47857;DHT22;33618;49.972;8.242;2023-05-09T10:22:06;19.70;99.90
47857;DHT22;33618;49.972;8.242;2023-05-09T10:24:40;19.70;99.90
47857;DHT22;33618;49.972;8.242;2023-05-09T10:27:11;19.90;99.90
47857;DHT22;33618;49.972;8.242;2023-05-09T10:29:43;20.30;99.90
47857;DHT22;33618;49.972;8.242;2023-05-09T10:32:16;20.70;99.90
47857;DHT22;33618;49.972;8.242;2023-05-09T10:34:48;21.00;99.90
47857;DHT22;33618;49.972;8.242;2023-05-09T10:37:17;21.30;99.90
47857;DHT22;33618;49.972;8.242;2023-05-09T10:39:45;21.80;99.90
47857;DHT22;33618;49.972;8.242;2023-05-09T10:42:12;22.00;99.90
47857;DHT22;33618;49.972;8.242;2023-05-09T10:44:40;21.80;99.90
47857;DHT22;33618;49.972;8.242;2023-05-09T10:47:07;21.70;99.90
47857;DHT22;33618;49.972;8.242;2023-05-09T10:49:34;21.90;99.90
47857;DHT22;33618;49.972;8.242;2023-05-09T10:52:03;22.10;99.90
47857;DHT22;33618;49.972;8.242;2023-05-09T10:54:30;22.00;99.90
47857;DHT22;33618;49.972;8.242;2023-05-09T10:56:59;22.10;99.90
47857;DHT22;33618;49.972;8.242;2023-05-09T11:02:04;22.20;99.90
47857;DHT22;33618;49.972;8.242;2023-05-09T11:04:31;22.40;99.90
47857;DHT22;33618;49.972;8.242;2023-05-09T11:06:59;22.50;99.90
47857;DHT22;33618;49.972;8.242;2023-05-09T11:09:36;22.40;99.90
47857;DHT22;33618;49.972;8.242;2023-05-09T11:17:07;22.20;99.90
47857;DHT22;33618;49.972;8.242;2023-05-09T11:22:27;22.20;99.90
47857;DHT22;33618;49.972;8.242;2023-05-09T11:25:13;22.30;99.90
47857;DHT22;33618;49.972;8.242;2023-05-09T11:27:50;22.50;99.90
47857;DHT22;33618;49.972;8.242;2023-05-09T11:30:19;22.50;99.90
47857;DHT22;33618;49.972;8.242;2023-05-09T11:32:46;22.80;99.90
47857;DHT22;33618;49.972;8.242;2023-05-09T11:35:17;23.20;99.90
47857;DHT22;33618;49.972;8.242;2023-05-09T11:37:45;23.40;99.90
47857;DHT22;33618;49.972;8.242;2023-05-09T11:40:15;23.30;99.80
47857;DHT22;33618;49.972;8.242;2023-05-09T11:42:44;23.00;99.90
47857;DHT22;33618;49.972;8.242;2023-05-09T11:45:12;22.80;99.90
47857;DHT22;33618;49.972;8.242;2023-05-09T11:47:40;22.70;99.90
47857;DHT22;33618;49.972;8.242;2023-05-09T11:50:12;22.70;99.90
47857;DHT22;33618;49.972;8.242;2023-05-09T11:52:39;22.50;99.90
47857;DHT22;33618;49.972;8.242;2023-05-09T11:55:12;22.40;99.90
47857;DHT22;33618;49.972;8.242;2023-05-09T11:57:47;22.60;99.90
47857;DHT22;33618;49.972;8.242;2023-05-09T12:00:19;22.60;99.90
47857;DHT22;33618;49.972;8.242;2023-05-09T12:02:47;22.70;99.90
47857;DHT22;33618;49.972;8.242;2023-05-09T12:05:17;22.90;99.90
47857;DHT22;33618;49.972;8.242;2023-05-09T12:07:45;23.10;99.90
47857;DHT22;33618;49.972;8.242;2023-05-09T12:10:19;23.00;99.40
47857;DHT22;33618;49.972;8.242;2023-05-09T12:12:48;22.90;99.50
47857;DHT22;33618;49.972;8.242;2023-05-09T12:15:16;22.80;99.90
47857;DHT22;33618;49.972;8.242;2023-05-09T12:17:44;22.80;99.90
47857;DHT22;33618;49.972;8.242;2023-05-09T12:20:13;22.80;99.90
47857;DHT22;33618;49.972;8.242;2023-05-09T12:22:43;22.60;99.90
47857;DHT22;33618;49.972;8.242;2023-05-09T12:25:10;22.20;99.90
47857;DHT22;33618;49.972;8.242;2023-05-09T12:27:38;21.90;99.90
47857;DHT22;33618;49.972;8.242;2023-05-09T12:30:07;21.90;99.90
47857;DHT22;33618;49.972;8.242;2023-05-09T12:32:36;21.70;99.90
47857;DHT22;33618;49.972;8.242;2023-05-09T12:35:07;21.60;99.90
47857;DHT22;33618;49.972;8.242;2023-05-09T12:37:35;21.60;99.90
47857;DHT22;33618;49.972;8.242;2023-05-09T12:40:09;21.60;99.90
47857;DHT22;33618;49.972;8.242;2023-05-09T12:42:38;21.70;99.90
47857;DHT22;33618;49.972;8.242;2023-05-09T12:45:07;21.80;99.90
47857;DHT22;33618;49.972;8.242;2023-05-09T12:47:34;21.80;99.90
47857;DHT22;33618;49.972;8.242;2023-05-09T12:50:05;21.80;99.90
47857;DHT22;33618;49.972;8.242;2023-05-09T12:52:40;21.60;99.90
47857;DHT22;33618;49.972;8.242;2023-05-09T12:55:27;21.60;99.90
47857;DHT22;33618;49.972;8.242;2023-05-09T12:57:59;21.60;99.90
47857;DHT22;33618;49.972;8.242;2023-05-09T13:00:27;21.60;99.90
47857;DHT22;33618;49.972;8.242;2023-05-09T13:02:55;21.30;99.90
47857;DHT22;33618;49.972;8.242;2023-05-09T13:05:22;21.10;99.90
47857;DHT22;33618;49.972;8.242;2023-05-09T13:07:51;21.10;99.90
47857;DHT22;33618;49.972;8.242;2023-05-09T13:10:22;21.00;99.90
47857;DHT22;33618;49.972;8.242;2023-05-09T13:12:49;21.00;99.90
47857;DHT22;33618;49.972;8.242;2023-05-09T13:15:18;20.90;99.90
47857;DHT22;33618;49.972;8.242;2023-05-09T13:17:47;20.70;99.90
47857;DHT22;33618;49.972;8.242;2023-05-09T13:20:14;20.70;99.90
47857;DHT22;33618;49.972;8.242;2023-05-09T13:22:41;20.50;99.90
47857;DHT22;33618;49.972;8.242;2023-05-09T13:25:10;20.40;99.90
47857;DHT22;33618;49.972;8.242;2023-05-09T13:27:38;20.30;99.90
47857;DHT22;33618;49.972;8.242;2023-05-09T13:30:05;20.20;99.90
47857;DHT22;33618;49.972;8.242;2023-05-09T13:32:35;20.20;99.90
47857;DHT22;33618;49.972;8.242;2023-05-09T13:35:03;20.20;99.90
47857;DHT22;33618;49.972;8.242;2023-05-09T13:37:33;20.30;99.90
47857;DHT22;33618;49.972;8.242;2023-05-09T13:40:00;20.50;99.90
47857;DHT22;33618;49.972;8.242;2023-05-09T13:42:27;20.60;99.90
47857;DHT22;33618;49.972;8.242;2023-05-09T13:44:54;20.60;99.90
47857;DHT22;33618;49.972;8.242;2023-05-09T13:47:21;20.70;99.90
47857;DHT22;33618;49.972;8.242;2023-05-09T13:49:48;20.80;99.90
47857;DHT22;33618;49.972;8.242;2023-05-09T13:52:15;20.80;99.90
47857;DHT22;33618;49.972;8.242;2023-05-09T13:54:42;20.70;99.90
47857;DHT22;33618;49.972;8.242;2023-05-09T13:57:09;20.80;99.90
47857;DHT22;33618;49.972;8.242;2023-05-09T13:59:36;20.80;99.90
47857;DHT22;33618;49.972;8.242;2023-05-09T14:02:03;20.80;99.90
47857;DHT22;33618;49.972;8.242;2023-05-09T14:04:30;20.70;99.90
47857;DHT22;33618;49.972;8.242;2023-05-09T14:06:58;20.70;99.90
47857;DHT22;33618;49.972;8.242;2023-05-09T14:09:25;20.80;99.90
47857;DHT22;33618;49.972;8.242;2023-05-09T14:11:52;20.80;99.90
47857;DHT22;33618;49.972;8.242;2023-05-09T14:14:22;20.80;99.90
47857;DHT22;33618;49.972;8.242;2023-05-09T14:16:50;20.80;99.90
47857;DHT22;33618;49.972;8.242;2023-05-09T14:19:17;20.80;99.90
47857;DHT22;33618;49.972;8.242;2023-05-09T14:21:44;20.80;99.90
47857;DHT22;33618;49.972;8.242;2023-05-09T14:24:14;20.80;99.90
47857;DHT22;33618;49.972;8.242;2023-05-09T14:26:42;20.70;99.90
47857;DHT22;33618;49.972;8.242;2023-05-09T14:29:09;20.60;99.90
47857;DHT22;33618;49.972;8.242;2023-05-09T14:31:36;20.50;99.90
47857;DHT22;33618;49.972;8.242;2023-05-09T14:34:03;20.40;99.90
47857;DHT22;33618;49.972;8.242;2023-05-09T14:36:31;20.40;99.90
47857;DHT22;33618;49.972;8.242;2023-05-09T14:39:00;20.40;99.90
47857;DHT22;33618;49.972;8.242;2023-05-09T14:41:27;20.40;99.90
47857;DHT22;33618;49.972;8.242;2023-05-09T14:43:54;20.40;99.90
47857;DHT22;33618;49.972;8.242;2023-05-09T14:46:21;20.40;99.90
47857;DHT22;33618;49.972;8.242;2023-05-09T14:48:50;20.30;99.90
47857;DHT22;33618;49.972;8.242;2023-05-09T14:51:18;20.30;99.90
47857;DHT22;33618;49.972;8.242;2023-05-09T14:53:45;20.20;99.90
47857;DHT22;33618;49.972;8.242;2023-05-09T14:56:12;20.20;99.90
47857;DHT22;33618;49.972;8.242;2023-05-09T14:58:39;20.10;99.90
47857;DHT22;33618;49.972;8.242;2023-05-09T15:01:06;20.10;99.90
47857;DHT22;33618;49.972;8.242;2023-05-09T15:03:33;20.10;99.90
47857;DHT22;33618;49.972;8.242;2023-05-09T15:06:00;20.10;99.90
47857;DHT22;33618;49.972;8.242;2023-05-09T15:08:27;20.10;99.90
47857;DHT22;33618;49.972;8.242;2023-05-09T15:10:54;20.10;99.90
47857;DHT22;33618;49.972;8.242;2023-05-09T15:13:20;20.00;99.90
47857;DHT22;33618;49.972;8.242;2023-05-09T15:41:15;20.20;99.90
47857;DHT22;33618;49.972;8.242;2023-05-09T15:43:42;20.20;99.90
47857;DHT22;33618;49.972;8.242;2023-05-09T15:46:09;20.20;99.90
47857;DHT22;33618;49.972;8.242;2023-05-09T15:48:36;20.20;99.90
47857;DHT22;33618;49.972;8.242;2023-05-09T15:51:03;20.20;99.90
47857;DHT22;33618;49.972;8.242;2023-05-09T15:53:30;20.20;99.90
47857;DHT22;33618;49.972;8.242;2023-05-09T15:55:57;20.20;99.90
47857;DHT22;33618;49.972;8.242;2023-05-09T15:58:24;20.20;99.90
47857;DHT22;33618;49.972;8.242;2023-05-09T16:00:51;20.30;99.90
47857;DHT22;33618;49.972;8.242;2023-05-09T16:03:18;20.20;99.90
47857;DHT22;33618;49.972;8.242;2023-05-09T16:05:45;20.10;99.90
47857;DHT22;33618;49.972;8.242;2023-05-09T16:08:41;20.20;99.90
47857;DHT22;33618;49.972;8.242;2023-05-09T16:11:08;20.30;99.90
47857;DHT22;33618;49.972;8.242;2023-05-09T16:13:35;20.30;99.90
47857;DHT22;33618;49.972;8.242;2023-05-09T16:16:03;20.20;99.90
47857;DHT22;33618;49.972;8.242;2023-05-09T16:18:30;20.10;99.90
47857;DHT22;33618;49.972;8.242;2023-05-09T16:24:34;20.00;99.90
47857;DHT22;33618;49.972;8.242;2023-05-09T16:27:02;19.80;99.90